sensor_id;sensor_type;location;lat;lon;timestamp;pressure;altitude;pressure_sealevel;temperature;humidity
20160;BME280;50187;50.492;12.134;2023-05-13T00:01:49;97832.50;;;20.16;40.96
20160;BME280;50187;50.492;12.134;2023-05-13T00:04:15;97830.81;;;20.15;40.99
20160;BME280;50187;50.492;12.134;2023-05-13T00:06:42;97831.50;;;20.17;41.00
20160;BME280;50187;50.492;12.134;2023-05-13T00:09:08;97833.53;;;20.15;40.79
20160;BME280;50187;50.492;12.134;2023-05-13T00:11:35;97827.97;;;20.17;40.87
20160;BME280;50187;50.492;12.134;2023-05-13T00:14:01;97833.53;;;20.15;40.84
20160;BME280;50187;50.492;12.134;2023-05-13T00:16:29;97824.56;;;20.15;40.98
20160;BME280;50187;50.492;12.134;2023-05-13T00:18:55;97826.41;;;20.14;41.03
20160;BME280;50187;50.492;12.134;2023-05-13T00:21:22;97828.13;;;20.15;40.75
20160;BME280;50187;50.492;12.134;2023-05-13T00:23:49;97829.94;;;20.15;40.79
20160;BME280;50187;50.492;12.134;2023-05-13T00:26:15;97825.41;;;20.15;41.01
20160;BME280;50187;50.492;12.134;2023-05-13T00:28:45;97825.56;;;20.14;40.85
20160;BME280;50187;50.492;12.134;2023-05-13T00:31:12;97827.41;;;20.13;41.02
20160;BME280;50187;50.492;12.134;2023-05-13T00:33:38;97831.09;;;20.12;40.92
20160;BME280;50187;50.492;12.134;2023-05-13T00:36:05;97838.38;;;20.12;40.73
20160;BME280;50187;50.492;12.134;2023-05-13T00:38:33;97830.97;;;20.14;40.91
20160;BME280;50187;50.492;12.134;2023-05-13T00:41:01;97841.06;;;20.12;40.94
20160;BME280;50187;50.492;12.134;2023-05-13T00:43:29;97831.09;;;20.12;41.01
20160;BME280;50187;50.492;12.134;2023-05-13T00:45:56;97837.38;;;20.13;40.82
20160;BME280;50187;50.492;12.134;2023-05-13T00:48:24;97836.66;;;20.11;41.06
20160;BME280;50187;50.492;12.134;2023-05-13T00:50:50;97838.38;;;20.12;40.96
20160;BME280;50187;50.492;12.134;2023-05-13T00:53:17;97832.97;;;20.12;40.78
20160;BME280;50187;50.492;12.134;2023-05-13T00:55:44;97831.28;;;20.11;40.75
20160;BME280;50187;50.492;12.134;2023-05-13T00:58:11;97831.28;;;20.11;40.83
20160;BME280;50187;50.492;12.134;2023-05-13T01:00:47;97835.16;;;20.08;40.97
20160;BME280;50187;50.492;12.134;2023-05-13T01:03:32;97832.13;;;20.11;41.04
20160;BME280;50187;50.492;12.134;2023-05-13T01:06:35;97831.44;;;20.09;40.76
20160;BME280;50187;50.492;12.134;2023-05-13T01:09:24;97834.13;;;20.09;40.98
20160;BME280;50187;50.492;12.134;2023-05-13T01:11:57;97834.13;;;20.09;41.09
20160;BME280;50187;50.492;12.134;2023-05-13T01:14:32;97839.00;;;20.05;40.94
20160;BME280;50187;50.492;12.134;2023-05-13T01:17:10;97839.69;;;20.07;40.93
20160;BME280;50187;50.492;12.134;2023-05-13T01:19:46;97836.81;;;20.09;41.13
20160;BME280;50187;50.492;12.134;2023-05-13T01:22:15;97840.56;;;20.08;40.91
20160;BME280;50187;50.492;12.134;2023-05-13T01:24:41;97837.97;;;20.06;40.87
20160;BME280;50187;50.492;12.134;2023-05-13T01:27:08;97837.97;;;20.06;40.96
20160;BME280;50187;50.492;12.134;2023-05-13T01:29:35;97839.00;;;20.05;41.06
20160;BME280;50187;50.492;12.134;2023-05-13T01:32:03;97842.53;;;20.06;40.81
20160;BME280;50187;50.492;12.134;2023-05-13T01:34:31;97842.53;;;20.06;40.87
20160;BME280;50187;50.492;12.134;2023-05-13T01:36:59;97844.25;;;20.07;40.75
20160;BME280;50187;50.492;12.134;2023-05-13T01:39:27;97841.53;;;20.07;40.89
20160;BME280;50187;50.492;12.134;2023-05-13T01:41:57;97850.66;;;20.06;41.03
20160;BME280;50187;50.492;12.134;2023-05-13T01:44:24;97839.00;;;20.05;40.84
20160;BME280;50187;50.492;12.134;2023-05-13T01:46:50;97843.38;;;20.06;40.82
20160;BME280;50187;50.492;12.134;2023-05-13T01:49:18;97843.53;;;20.05;40.82
20160;BME280;50187;50.492;12.134;2023-05-13T01:51:45;97850.81;;;20.04;41.00
20160;BME280;50187;50.492;12.134;2023-05-13T01:54:11;97845.56;;;20.03;40.83
20160;BME280;50187;50.492;12.134;2023-05-13T01:56:44;97846.41;;;20.03;40.86
20160;BME280;50187;50.492;12.134;2023-05-13T01:59:11;97842.84;;;20.03;41.11
20160;BME280;50187;50.492;12.134;2023-05-13T02:01:38;97845.56;;;20.03;41.06
20160;BME280;50187;50.492;12.134;2023-05-13T02:04:06;97842.84;;;20.03;41.05
20160;BME280;50187;50.492;12.134;2023-05-13T02:06:32;97844.72;;;20.02;41.02
20160;BME280;50187;50.492;12.134;2023-05-13T02:08:59;97836.75;;;20.01;41.10
20160;BME280;50187;50.492;12.134;2023-05-13T02:11:25;97838.47;;;20.02;40.80
20160;BME280;50187;50.492;12.134;2023-05-13T02:13:55;97837.78;;;20.00;40.80
20160;BME280;50187;50.492;12.134;2023-05-13T02:16:22;97832.22;;;20.01;41.10
20160;BME280;50187;50.492;12.134;2023-05-13T02:18:48;97836.91;;;19.99;41.14
20160;BME280;50187;50.492;12.134;2023-05-13T02:21:15;97846.72;;;20.00;40.85
20160;BME280;50187;50.492;12.134;2023-05-13T02:23:42;97846.72;;;20.00;41.02
20160;BME280;50187;50.492;12.134;2023-05-13T02:26:09;97845.00;;;19.99;40.93
20160;BME280;50187;50.492;12.134;2023-05-13T02:28:35;97848.56;;;20.00;40.81
20160;BME280;50187;50.492;12.134;2023-05-13T02:31:02;97837.94;;;19.98;41.04
20160;BME280;50187;50.492;12.134;2023-05-13T02:33:28;97838.63;;;20.00;40.78
20160;BME280;50187;50.492;12.134;2023-05-13T02:35:55;97842.31;;;19.99;40.93
20160;BME280;50187;50.492;12.134;2023-05-13T02:38:22;97846.19;;;19.97;40.82
20160;BME280;50187;50.492;12.134;2023-05-13T02:40:49;97840.63;;;19.98;41.09
20160;BME280;50187;50.492;12.134;2023-05-13T02:43:15;97837.06;;;19.98;40.79
20160;BME280;50187;50.492;12.134;2023-05-13T02:45:53;97839.75;;;19.98;40.90
20160;BME280;50187;50.492;12.134;2023-05-13T02:48:19;97843.34;;;19.98;41.00
20160;BME280;50187;50.492;12.134;2023-05-13T02:50:46;97840.78;;;19.97;40.92
20160;BME280;50187;50.492;12.134;2023-05-13T02:53:12;97826.56;;;19.95;41.12
20160;BME280;50187;50.492;12.134;2023-05-13T02:55:45;97833.69;;;19.96;41.05
20160;BME280;50187;50.492;12.134;2023-05-13T02:58:11;97824.88;;;19.94;40.85
20160;BME280;50187;50.492;12.134;2023-05-13T03:00:38;97837.06;;;19.98;40.86
20160;BME280;50187;50.492;12.134;2023-05-13T03:03:04;97827.41;;;19.95;40.77
20160;BME280;50187;50.492;12.134;2023-05-13T03:05:31;97828.28;;;19.96;41.05
20160;BME280;50187;50.492;12.134;2023-05-13T03:07:58;97825.75;;;19.94;41.03
20160;BME280;50187;50.492;12.134;2023-05-13T03:10:24;97827.56;;;19.94;40.92
20160;BME280;50187;50.492;12.134;2023-05-13T03:12:51;97820.09;;;19.87;40.96
20160;BME280;50187;50.492;12.134;2023-05-13T03:15:17;97821.50;;;19.92;40.88
20160;BME280;50187;50.492;12.134;2023-05-13T03:17:44;97824.19;;;19.92;41.06
20160;BME280;50187;50.492;12.134;2023-05-13T03:20:11;97824.19;;;19.92;40.86
20160;BME280;50187;50.492;12.134;2023-05-13T03:22:37;97827.72;;;19.92;40.95
20160;BME280;50187;50.492;12.134;2023-05-13T03:25:05;97825.91;;;19.93;40.90
20160;BME280;50187;50.492;12.134;2023-05-13T03:27:39;97829.59;;;19.92;40.92
20160;BME280;50187;50.492;12.134;2023-05-13T03:30:08;97830.44;;;19.92;40.91
20160;BME280;50187;50.492;12.134;2023-05-13T03:32:42;97835.84;;;19.92;40.88
20160;BME280;50187;50.492;12.134;2023-05-13T03:35:09;97838.53;;;19.92;40.87
20160;BME280;50187;50.492;12.134;2023-05-13T03:37:36;97828.88;;;19.89;40.91
20160;BME280;50187;50.492;12.134;2023-05-13T03:40:04;97851.13;;;19.83;40.92
20160;BME280;50187;50.492;12.134;2023-05-13T03:42:32;97826.91;;;19.92;41.06
20160;BME280;50187;50.492;12.134;2023-05-13T03:45:01;97827.22;;;19.88;41.11
20160;BME280;50187;50.492;12.134;2023-05-13T03:47:29;97835.16;;;19.90;40.84
20160;BME280;50187;50.492;12.134;2023-05-13T03:49:59;97823.50;;;19.89;40.81
20160;BME280;50187;50.492;12.134;2023-05-13T03:52:28;97840.56;;;19.90;40.81
20160;BME280;50187;50.492;12.134;2023-05-13T03:54:54;97838.69;;;19.90;41.01
20160;BME280;50187;50.492;12.134;2023-05-13T03:57:21;97850.47;;;19.89;40.82
20160;BME280;50187;50.492;12.134;2023-05-13T03:59:47;97842.69;;;19.86;41.02
20160;BME280;50187;50.492;12.134;2023-05-13T04:02:14;97843.41;;;19.88;41.07
20160;BME280;50187;50.492;12.134;2023-05-13T04:04:40;97844.25;;;19.89;41.01
20160;BME280;50187;50.492;12.134;2023-05-13T04:07:07;97849.66;;;19.89;40.77
20160;BME280;50187;50.492;12.134;2023-05-13T04:09:34;97848.81;;;19.88;40.95
20160;BME280;50187;50.492;12.134;2023-05-13T04:12:00;97838.00;;;19.88;40.74
20160;BME280;50187;50.492;12.134;2023-05-13T04:14:28;97842.38;;;19.89;40.97
20160;BME280;50187;50.492;12.134;2023-05-13T04:16:55;97842.69;;;19.86;41.10
20160;BME280;50187;50.492;12.134;2023-05-13T04:19:22;97844.25;;;19.89;40.76
20160;BME280;50187;50.492;12.134;2023-05-13T04:21:49;97853.19;;;19.89;40.98
20160;BME280;50187;50.492;12.134;2023-05-13T04:24:15;97855.19;;;19.87;40.76
20160;BME280;50187;50.492;12.134;2023-05-13T04:26:42;97852.50;;;19.87;40.92
20160;BME280;50187;50.492;12.134;2023-05-13T04:29:08;97854.22;;;19.88;40.80
20160;BME280;50187;50.492;12.134;2023-05-13T04:31:35;97857.75;;;19.89;41.01
20160;BME280;50187;50.492;12.134;2023-05-13T04:34:01;97857.91;;;19.87;41.02
20160;BME280;50187;50.492;12.134;2023-05-13T04:36:28;97856.91;;;19.88;40.95
20160;BME280;50187;50.492;12.134;2023-05-13T04:38:55;97865.00;;;19.88;40.88
20160;BME280;50187;50.492;12.134;2023-05-13T04:41:22;97863.47;;;19.86;40.81
20160;BME280;50187;50.492;12.134;2023-05-13T04:43:48;97866.00;;;19.87;40.94
20160;BME280;50187;50.492;12.134;2023-05-13T04:46:15;97861.06;;;19.83;40.69
20160;BME280;50187;50.492;12.134;2023-05-13T04:48:41;97875.09;;;19.86;40.75
20160;BME280;50187;50.492;12.134;2023-05-13T04:51:08;97868.69;;;19.87;40.81
20160;BME280;50187;50.492;12.134;2023-05-13T04:53:36;97866.00;;;19.87;40.92
20160;BME280;50187;50.492;12.134;2023-05-13T04:56:05;97872.41;;;19.86;40.99
20160;BME280;50187;50.492;12.134;2023-05-13T04:58:31;97866.31;;;19.84;40.81
20160;BME280;50187;50.492;12.134;2023-05-13T05:00:58;97872.41;;;19.86;40.79
20160;BME280;50187;50.492;12.134;2023-05-13T05:03:24;97875.09;;;19.86;41.00
20160;BME280;50187;50.492;12.134;2023-05-13T05:05:51;97877.78;;;19.86;40.90
20160;BME280;50187;50.492;12.134;2023-05-13T05:08:19;97875.09;;;19.86;40.73
20160;BME280;50187;50.492;12.134;2023-05-13T05:10:47;97873.53;;;19.84;40.91
20160;BME280;50187;50.492;12.134;2023-05-13T05:13:14;97875.09;;;19.86;40.82
20160;BME280;50187;50.492;12.134;2023-05-13T05:15:42;97883.19;;;19.86;40.84
20160;BME280;50187;50.492;12.134;2023-05-13T05:18:09;97882.34;;;19.86;40.90
20160;BME280;50187;50.492;12.134;2023-05-13T05:20:38;97877.78;;;19.86;40.92
20160;BME280;50187;50.492;12.134;2023-05-13T05:23:08;97875.09;;;19.86;40.81
20160;BME280;50187;50.492;12.134;2023-05-13T05:25:36;97871.56;;;19.86;40.87
20160;BME280;50187;50.492;12.134;2023-05-13T05:28:03;97874.09;;;19.87;40.82
20160;BME280;50187;50.492;12.134;2023-05-13T05:30:31;97879.81;;;19.84;40.99
20160;BME280;50187;50.492;12.134;2023-05-13T05:33:09;97871.56;;;19.86;40.90
20160;BME280;50187;50.492;12.134;2023-05-13T05:35:38;97874.94;;;19.88;40.76
20160;BME280;50187;50.492;12.134;2023-05-13T05:38:07;97873.09;;;19.88;40.95
20160;BME280;50187;50.492;12.134;2023-05-13T05:40:40;97881.22;;;19.88;41.01
20160;BME280;50187;50.492;12.134;2023-05-13T05:43:07;97877.09;;;19.84;40.88
20160;BME280;50187;50.492;12.134;2023-05-13T05:45:34;97878.50;;;19.88;40.72
20160;BME280;50187;50.492;12.134;2023-05-13T05:48:03;97879.19;;;19.90;40.95
20160;BME280;50187;50.492;12.134;2023-05-13T05:50:30;97877.63;;;19.88;40.77
20160;BME280;50187;50.492;12.134;2023-05-13T05:52:58;97880.72;;;19.93;40.67
20160;BME280;50187;50.492;12.134;2023-05-13T05:55:26;97881.72;;;19.92;40.66
20160;BME280;50187;50.492;12.134;2023-05-13T05:57:57;97882.59;;;19.93;40.91
20160;BME280;50187;50.492;12.134;2023-05-13T06:00:29;97872.47;;;19.95;40.89
20160;BME280;50187;50.492;12.134;2023-05-13T06:02:56;97895.63;;;19.97;40.73
20160;BME280;50187;50.492;12.134;2023-05-13T06:05:23;97878.28;;;20.00;40.79
20160;BME280;50187;50.492;12.134;2023-05-13T06:07:50;97869.47;;;19.98;40.83
20160;BME280;50187;50.492;12.134;2023-05-13T06:10:17;97870.19;;;20.00;40.55
20160;BME280;50187;50.492;12.134;2023-05-13T06:12:44;97869.16;;;20.01;40.59
20160;BME280;50187;50.492;12.134;2023-05-13T06:15:11;97871.72;;;20.02;40.82
20160;BME280;50187;50.492;12.134;2023-05-13T06:17:37;97873.25;;;20.05;40.79
20160;BME280;50187;50.492;12.134;2023-05-13T06:20:05;97877.81;;;20.04;40.83
20160;BME280;50187;50.492;12.134;2023-05-13T06:22:32;97872.72;;;20.01;40.77
20160;BME280;50187;50.492;12.134;2023-05-13T06:24:59;97871.25;;;20.07;40.77
20160;BME280;50187;50.492;12.134;2023-05-13T06:27:26;97863.84;;;20.09;40.50
20160;BME280;50187;50.492;12.134;2023-05-13T06:29:52;97866.38;;;20.11;40.77
20160;BME280;50187;50.492;12.134;2023-05-13T06:32:19;97867.25;;;20.11;40.58
20160;BME280;50187;50.492;12.134;2023-05-13T06:34:46;97877.03;;;20.12;40.64
20160;BME280;50187;50.492;12.134;2023-05-13T06:37:13;97867.91;;;20.13;40.52
20160;BME280;50187;50.492;12.134;2023-05-13T06:39:40;97868.78;;;20.14;40.47
20160;BME280;50187;50.492;12.134;2023-05-13T06:42:07;97865.94;;;20.15;40.62
20160;BME280;50187;50.492;12.134;2023-05-13T06:44:42;97864.91;;;20.16;40.51
20160;BME280;50187;50.492;12.134;2023-05-13T06:47:08;97863.91;;;20.17;40.62
20160;BME280;50187;50.492;12.134;2023-05-13T06:49:42;97860.38;;;20.17;40.48
20160;BME280;50187;50.492;12.134;2023-05-13T06:52:09;97867.00;;;20.22;40.34
20160;BME280;50187;50.492;12.134;2023-05-13T06:54:36;97872.09;;;20.25;40.30
20160;BME280;50187;50.492;12.134;2023-05-13T06:57:02;97867.06;;;20.31;40.47
20160;BME280;50187;50.492;12.134;2023-05-13T06:59:30;97860.66;;;20.32;40.49
20160;BME280;50187;50.492;12.134;2023-05-13T07:01:57;97859.34;;;20.36;40.32
20160;BME280;50187;50.492;12.134;2023-05-13T07:04:24;97859.88;;;20.39;40.29
20160;BME280;50187;50.492;12.134;2023-05-13T07:06:50;97866.28;;;20.38;40.29
20160;BME280;50187;50.492;12.134;2023-05-13T07:09:17;97860.03;;;20.38;40.39
20160;BME280;50187;50.492;12.134;2023-05-13T07:11:43;97863.41;;;20.40;40.40
20160;BME280;50187;50.492;12.134;2023-05-13T07:14:09;97861.09;;;20.45;40.03
20160;BME280;50187;50.492;12.134;2023-05-13T07:16:36;97856.84;;;20.42;40.11
20160;BME280;50187;50.492;12.134;2023-05-13T07:19:03;97857.09;;;20.49;39.97
20160;BME280;50187;50.492;12.134;2023-05-13T07:21:29;97857.44;;;20.54;40.13
20160;BME280;50187;50.492;12.134;2023-05-13T07:23:56;97864.38;;;20.57;39.81
20160;BME280;50187;50.492;12.134;2023-05-13T07:26:22;97859.69;;;20.59;40.01
20160;BME280;50187;50.492;12.134;2023-05-13T07:28:49;97911.50;;;20.54;40.09
20160;BME280;50187;50.492;12.134;2023-05-13T07:31:15;97852.91;;;20.55;39.93
20160;BME280;50187;50.492;12.134;2023-05-13T07:33:42;97860.38;;;20.61;40.04
20160;BME280;50187;50.492;12.134;2023-05-13T07:36:08;97847.72;;;20.62;39.78
20160;BME280;50187;50.492;12.134;2023-05-13T07:38:35;97851.25;;;20.62;39.76
20160;BME280;50187;50.492;12.134;2023-05-13T07:41:01;97844.41;;;20.68;39.71
20160;BME280;50187;50.492;12.134;2023-05-13T07:43:28;97844.25;;;20.69;39.84
20160;BME280;50187;50.492;12.134;2023-05-13T07:45:54;97838.66;;;20.71;39.76
20160;BME280;50187;50.492;12.134;2023-05-13T07:48:21;97845.28;;;20.76;39.76
20160;BME280;50187;50.492;12.134;2023-05-13T07:50:49;97837.03;;;20.78;39.84
20160;BME280;50187;50.492;12.134;2023-05-13T07:53:16;97845.84;;;20.80;39.64
20160;BME280;50187;50.492;12.134;2023-05-13T07:55:45;97848.22;;;20.83;39.74
20160;BME280;50187;50.492;12.134;2023-05-13T07:58:11;97844.50;;;20.84;39.46
20160;BME280;50187;50.492;12.134;2023-05-13T08:00:38;97846.72;;;20.89;39.67
20160;BME280;50187;50.492;12.134;2023-05-13T08:03:05;97843.53;;;20.93;39.57
20160;BME280;50187;50.492;12.134;2023-05-13T08:05:31;97834.41;;;20.95;39.38
20160;BME280;50187;50.492;12.134;2023-05-13T08:07:58;97837.13;;;20.95;39.54
20160;BME280;50187;50.492;12.134;2023-05-13T08:10:24;97830.53;;;20.97;39.46
20160;BME280;50187;50.492;12.134;2023-05-13T08:12:51;97828.69;;;20.98;39.41
20160;BME280;50187;50.492;12.134;2023-05-13T08:15:23;97830.06;;;21.02;39.44
20160;BME280;50187;50.492;12.134;2023-05-13T08:17:50;97833.44;;;21.04;39.26
20160;BME280;50187;50.492;12.134;2023-05-13T08:20:19;97824.16;;;21.06;39.45
20160;BME280;50187;50.492;12.134;2023-05-13T08:22:46;97822.81;;;21.10;39.11
20160;BME280;50187;50.492;12.134;2023-05-13T08:25:13;97828.75;;;21.14;39.28
20160;BME280;50187;50.492;12.134;2023-05-13T08:27:41;97830.78;;;21.12;39.06
20160;BME280;50187;50.492;12.134;2023-05-13T08:30:08;97826.56;;;21.18;39.02
20160;BME280;50187;50.492;12.134;2023-05-13T08:32:34;97824.56;;;21.20;39.22
20160;BME280;50187;50.492;12.134;2023-05-13T08:35:01;97831.19;;;21.25;38.86
20160;BME280;50187;50.492;12.134;2023-05-13T08:37:27;97836.25;;;21.28;38.89
20160;BME280;50187;50.492;12.134;2023-05-13T08:39:54;97834.06;;;21.24;38.88
20160;BME280;50187;50.492;12.134;2023-05-13T08:42:22;97837.97;;;21.30;39.12
20160;BME280;50187;50.492;12.134;2023-05-13T08:44:51;97840.50;;;21.31;39.00
20160;BME280;50187;50.492;12.134;2023-05-13T08:47:31;97836.25;;;21.28;38.98
20160;BME280;50187;50.492;12.134;2023-05-13T08:50:02;97842.50;;;21.29;39.06
20160;BME280;50187;50.492;12.134;2023-05-13T08:52:30;97841.00;;;21.26;38.90
20160;BME280;50187;50.492;12.134;2023-05-13T08:54:58;97838.44;;;21.25;39.15
20160;BME280;50187;50.492;12.134;2023-05-13T08:57:24;97842.00;;;21.25;38.87
20160;BME280;50187;50.492;12.134;2023-05-13T08:59:52;97849.25;;;21.25;39.00
20160;BME280;50187;50.492;12.134;2023-05-13T09:02:18;97846.72;;;21.23;39.14
20160;BME280;50187;50.492;12.134;2023-05-13T09:04:45;97852.13;;;21.23;39.12
20160;BME280;50187;50.492;12.134;2023-05-13T09:07:15;97843.84;;;21.25;39.19
20160;BME280;50187;50.492;12.134;2023-05-13T09:09:42;97865.34;;;21.26;39.16
20160;BME280;50187;50.492;12.134;2023-05-13T09:12:09;97847.25;;;21.27;38.97
20160;BME280;50187;50.492;12.134;2023-05-13T09:14:37;97851.13;;;21.24;39.21
20160;BME280;50187;50.492;12.134;2023-05-13T09:17:03;97843.84;;;21.25;38.90
20160;BME280;50187;50.492;12.134;2023-05-13T09:19:30;97847.56;;;21.24;39.14
20160;BME280;50187;50.492;12.134;2023-05-13T09:21:57;97837.09;;;21.21;39.23
20160;BME280;50187;50.492;12.134;2023-05-13T09:24:23;97839.47;;;21.24;39.23
20160;BME280;50187;50.492;12.134;2023-05-13T09:26:50;97832.84;;;21.18;38.91
20160;BME280;50187;50.492;12.134;2023-05-13T09:29:24;97836.06;;;21.22;39.25
20160;BME280;50187;50.492;12.134;2023-05-13T09:31:53;97832.69;;;21.20;39.03
20160;BME280;50187;50.492;12.134;2023-05-13T09:34:38;97827.59;;;21.17;39.43
20160;BME280;50187;50.492;12.134;2023-05-13T09:37:06;97834.19;;;21.14;39.20
20160;BME280;50187;50.492;12.134;2023-05-13T09:39:40;97832.63;;;21.12;39.47
20160;BME280;50187;50.492;12.134;2023-05-13T09:42:14;97840.22;;;21.08;39.45
20160;BME280;50187;50.492;12.134;2023-05-13T09:44:43;97832.25;;;21.06;39.34
20160;BME280;50187;50.492;12.134;2023-05-13T09:47:13;97826.34;;;21.03;39.42
20160;BME280;50187;50.492;12.134;2023-05-13T09:49:41;97832.09;;;21.00;39.30
20160;BME280;50187;50.492;12.134;2023-05-13T09:52:08;97841.19;;;20.99;39.63
20160;BME280;50187;50.492;12.134;2023-05-13T09:54:38;97830.88;;;20.94;39.61
20160;BME280;50187;50.492;12.134;2023-05-13T09:57:05;97833.53;;;20.86;39.75
20160;BME280;50187;50.492;12.134;2023-05-13T09:59:34;97845.88;;;20.88;39.85
20160;BME280;50187;50.492;12.134;2023-05-13T10:04:31;97829.91;;;20.77;39.81
20160;BME280;50187;50.492;12.134;2023-05-13T10:07:02;97837.56;;;20.82;39.83
20160;BME280;50187;50.492;12.134;2023-05-13T10:09:34;97837.03;;;20.78;39.75
20160;BME280;50187;50.492;12.134;2023-05-13T10:12:02;97839.06;;;20.76;39.86
20160;BME280;50187;50.492;12.134;2023-05-13T10:14:32;97845.47;;;20.75;39.81
20160;BME280;50187;50.492;12.134;2023-05-13T10:16:58;97851.03;;;20.73;39.82
20160;BME280;50187;50.492;12.134;2023-05-13T10:19:25;97856.59;;;20.72;39.92
20160;BME280;50187;50.492;12.134;2023-05-13T10:21:52;97847.09;;;20.68;39.94
20160;BME280;50187;50.492;12.134;2023-05-13T10:24:20;97848.66;;;20.70;39.95
20160;BME280;50187;50.492;12.134;2023-05-13T10:26:50;97849.81;;;20.68;39.92
20160;BME280;50187;50.492;12.134;2023-05-13T10:29:18;97847.22;;;20.66;40.09
20160;BME280;50187;50.492;12.134;2023-05-13T10:31:45;97850.25;;;20.63;39.99
20160;BME280;50187;50.492;12.134;2023-05-13T10:34:13;97849.22;;;20.64;39.88
20160;BME280;50187;50.492;12.134;2023-05-13T10:42:41;97842.44;;;20.60;40.02
20160;BME280;50187;50.492;12.134;2023-05-13T10:45:09;97850.72;;;20.58;40.10
20160;BME280;50187;50.492;12.134;2023-05-13T10:47:36;97850.88;;;20.57;40.29
20160;BME280;50187;50.492;12.134;2023-05-13T10:50:05;97856.44;;;20.55;40.01
20160;BME280;50187;50.492;12.134;2023-05-13T10:52:48;97859.16;;;20.55;40.07
20160;BME280;50187;50.492;12.134;2023-05-13T10:55:19;97853.75;;;20.55;40.28
20160;BME280;50187;50.492;12.134;2023-05-13T10:58:12;97852.03;;;20.54;40.25
20160;BME280;50187;50.492;12.134;2023-05-13T11:00:43;97852.19;;;20.53;40.07
20160;BME280;50187;50.492;12.134;2023-05-13T11:05:39;97849.97;;;20.48;40.29
20160;BME280;50187;50.492;12.134;2023-05-13T11:08:05;97853.06;;;20.53;40.20
20160;BME280;50187;50.492;12.134;2023-05-13T11:10:32;97852.34;;;20.51;40.19
20160;BME280;50187;50.492;12.134;2023-05-13T11:13:22;97854.72;;;20.54;40.15
20160;BME280;50187;50.492;12.134;2023-05-13T11:15:53;97859.31;;;20.54;40.08
20160;BME280;50187;50.492;12.134;2023-05-13T11:18:29;97854.72;;;20.54;40.32
20160;BME280;50187;50.492;12.134;2023-05-13T11:21:01;97853.75;;;20.55;40.22
20160;BME280;50187;50.492;12.134;2023-05-13T11:23:32;97859.84;;;20.57;40.12
20160;BME280;50187;50.492;12.134;2023-05-13T11:26:11;97852.41;;;20.59;40.03
20160;BME280;50187;50.492;12.134;2023-05-13T11:28:55;97843.41;;;20.51;40.25
20160;BME280;50187;50.492;12.134;2023-05-13T11:31:22;97856.66;;;20.62;40.19
20160;BME280;50187;50.492;12.134;2023-05-13T11:36:40;97847.00;;;20.59;40.06
20160;BME280;50187;50.492;12.134;2023-05-13T11:39:14;97848.41;;;20.64;40.17
20160;BME280;50187;50.492;12.134;2023-05-13T11:41:45;97850.25;;;20.63;40.07
20160;BME280;50187;50.492;12.134;2023-05-13T11:44:14;97849.03;;;20.57;40.09
20160;BME280;50187;50.492;12.134;2023-05-13T11:47:00;97856.66;;;20.62;40.20
20160;BME280;50187;50.492;12.134;2023-05-13T11:52:06;97849.72;;;20.59;40.12
20160;BME280;50187;50.492;12.134;2023-05-13T11:54:50;97863.06;;;20.61;40.18
20160;BME280;50187;50.492;12.134;2023-05-13T11:57:17;97862.38;;;20.59;40.02
20160;BME280;50187;50.492;12.134;2023-05-13T12:02:24;97874.03;;;20.59;40.23
20160;BME280;50187;50.492;12.134;2023-05-13T12:04:51;97854.72;;;20.54;40.11
20160;BME280;50187;50.492;12.134;2023-05-13T12:07:20;97867.25;;;20.55;40.07
20160;BME280;50187;50.492;12.134;2023-05-13T12:09:48;97868.63;;;20.59;39.87
20160;BME280;50187;50.492;12.134;2023-05-13T12:12:15;97870.34;;;20.61;39.94
20160;BME280;50187;50.492;12.134;2023-05-13T12:14:44;97866.78;;;20.60;39.94
20160;BME280;50187;50.492;12.134;2023-05-13T12:17:12;97871.19;;;20.61;39.94
20160;BME280;50187;50.492;12.134;2023-05-13T12:19:39;97871.19;;;20.61;39.97
20160;BME280;50187;50.492;12.134;2023-05-13T12:22:07;97873.03;;;20.61;40.04
20160;BME280;50187;50.492;12.134;2023-05-13T12:24:34;97872.88;;;20.62;39.74
20160;BME280;50187;50.492;12.134;2023-05-13T12:27:05;97878.44;;;20.61;39.95
20160;BME280;50187;50.492;12.134;2023-05-13T12:29:41;97876.75;;;20.59;39.91
20160;BME280;50187;50.492;12.134;2023-05-13T12:32:08;97884.00;;;20.59;39.82
20160;BME280;50187;50.492;12.134;2023-05-13T12:34:37;97876.91;;;20.58;39.84
20160;BME280;50187;50.492;12.134;2023-05-13T12:37:11;97881.75;;;20.54;39.99
20160;BME280;50187;50.492;12.134;2023-05-13T12:39:41;97881.47;;;20.57;40.00
20160;BME280;50187;50.492;12.134;2023-05-13T12:42:16;97880.44;;;20.58;39.84
20160;BME280;50187;50.492;12.134;2023-05-13T12:44:43;97875.03;;;20.58;39.72
20160;BME280;50187;50.492;12.134;2023-05-13T12:47:10;97880.28;;;20.60;39.99
20160;BME280;50187;50.492;12.134;2023-05-13T12:49:54;97879.44;;;20.59;40.03
20160;BME280;50187;50.492;12.134;2023-05-13T12:52:22;97884.69;;;20.61;39.92
20160;BME280;50187;50.492;12.134;2023-05-13T12:54:49;97885.56;;;20.62;39.86
20160;BME280;50187;50.492;12.134;2023-05-13T12:57:16;97880.59;;;20.57;39.90
20160;BME280;50187;50.492;12.134;2023-05-13T12:59:43;97897.38;;;20.61;39.86
20160;BME280;50187;50.492;12.134;2023-05-13T13:02:12;97889.25;;;20.61;39.97
20160;BME280;50187;50.492;12.134;2023-05-13T13:04:39;97898.19;;;20.61;39.98
20160;BME280;50187;50.492;12.134;2023-05-13T13:07:06;97895.66;;;20.59;39.79
20160;BME280;50187;50.492;12.134;2023-05-13T13:09:37;97898.53;;;20.58;39.90
20160;BME280;50187;50.492;12.134;2023-05-13T13:12:03;97897.38;;;20.61;39.95
20160;BME280;50187;50.492;12.134;2023-05-13T13:14:30;97894.66;;;20.61;39.77
20160;BME280;50187;50.492;12.134;2023-05-13T13:16:57;97900.06;;;20.61;39.83